createdAt,value
2022-11-23T00:01:01.043Z,99290.84
2022-11-23T00:03:30.016Z,99283.78
2022-11-23T00:05:57.771Z,99281.75
2022-11-23T00:08:25.372Z,99289.38
2022-11-23T00:10:53.032Z,99292.28
2022-11-23T00:13:20.662Z,99282.16
2022-11-23T00:15:48.315Z,99287.94
2022-11-23T00:18:16.013Z,99289.59
2022-11-23T00:20:45.047Z,99287.94
2022-11-23T00:23:12.726Z,99290.84
2022-11-23T00:25:40.539Z,99292.50
2022-11-23T00:28:08.187Z,99296.00
2022-11-23T00:30:35.820Z,99291.69
2022-11-23T00:33:03.292Z,99288.78
2022-11-23T00:35:30.724Z,99283.63
2022-11-23T00:37:59.568Z,99289.81
2022-11-23T00:40:27.093Z,99294.38
2022-11-23T00:42:54.574Z,99293.09
2022-11-23T00:45:22.031Z,99290.41
2022-11-23T00:47:49.512Z,99286.09
2022-11-23T00:50:17.882Z,99281.97
2022-11-23T00:52:45.412Z,99285.47
2022-11-23T00:55:14.308Z,99285.47
2022-11-23T00:57:41.794Z,99286.28
2022-11-23T01:00:12.435Z,99285.47
2022-11-23T01:02:39.955Z,99287.13
2022-11-23T01:05:08.058Z,99284.22
2022-11-23T01:07:35.604Z,99287.31
2022-11-23T01:10:03.394Z,99284.19
2022-11-23T01:12:32.236Z,99282.34
2022-11-23T01:14:59.798Z,99280.06
2022-11-23T01:17:27.335Z,99279.84
2022-11-23T01:19:54.860Z,99284.81
2022-11-23T01:22:22.870Z,99278.19
2022-11-23T01:24:51.276Z,99276.53
2022-11-23T01:27:18.815Z,99289.97
2022-11-23T01:29:47.715Z,99287.91
2022-11-23T01:32:15.344Z,99292.47
2022-11-23T01:34:42.848Z,99288.72
2022-11-23T01:37:10.357Z,99292.47
2022-11-23T01:39:37.880Z,99288.56
2022-11-23T01:42:08.007Z,99286.25
2022-11-23T01:44:38.396Z,99285.22
2022-11-23T01:47:09.383Z,99299.31
2022-11-23T01:49:40.305Z,99294.53
2022-11-23T01:52:12.639Z,99289.81
2022-11-23T01:54:44.546Z,99292.06
2022-11-23T01:57:16.276Z,99293.72
2022-11-23T01:59:43.976Z,99294.75
2022-11-23T02:02:13.721Z,99290.41
2022-11-23T02:04:44.204Z,99284.66
2022-11-23T02:07:12.052Z,99290.41
2022-11-23T02:09:40.216Z,99294.34
2022-11-23T02:12:11.942Z,99293.94
2022-11-23T02:14:40.085Z,99295.78
2022-11-23T02:17:07.857Z,99299.09
2022-11-23T02:19:49.016Z,99294.97
2022-11-23T02:22:24.988Z,99292.06
2022-11-23T02:24:55.877Z,99302.81
2022-11-23T02:27:27.846Z,99295.59
2022-11-23T02:29:56.197Z,99306.97
2022-11-23T02:32:25.770Z,99301.16
2022-11-23T02:34:53.264Z,99307.19
2022-11-23T02:37:20.796Z,99307.19
2022-11-23T02:39:52.047Z,99306.53
2022-11-23T02:42:19.786Z,99308.19
2022-11-23T02:44:57.479Z,99310.06
2022-11-23T02:47:25.045Z,99299.72
2022-11-23T02:49:52.575Z,99297.88
2022-11-23T02:52:20.310Z,99299.72
2022-11-23T02:54:47.857Z,99301.59
2022-11-23T02:57:15.907Z,99301.78
2022-11-23T02:59:43.314Z,99301.59
2022-11-23T03:04:57.276Z,99297.66
2022-11-23T03:07:24.800Z,99305.09
2022-11-23T03:09:52.295Z,99300.78
2022-11-23T03:12:19.784Z,99300.78
2022-11-23T03:14:47.278Z,99303.25
2022-11-23T03:17:16.152Z,99301.38
2022-11-23T03:19:43.699Z,99302.84
2022-11-23T03:22:11.379Z,99296.22
2022-11-23T03:24:38.968Z,99306.53
2022-11-23T03:27:06.538Z,99307.59
2022-11-23T03:29:34.458Z,99294.56
2022-11-23T03:32:02.085Z,99297.25
2022-11-23T03:34:30.964Z,99296.00
2022-11-23T03:36:58.396Z,99295.78
2022-11-23T03:39:25.931Z,99305.13
2022-11-23T03:41:53.771Z,99300.56
2022-11-23T03:44:21.251Z,99301.16
2022-11-23T03:46:50.324Z,99301.16
2022-11-23T03:49:18.222Z,99301.16
2022-11-23T03:51:47.000Z,99295.78
2022-11-23T03:54:14.482Z,99299.75
2022-11-23T03:56:41.992Z,99295.78
2022-11-23T04:01:55.001Z,99299.13
2022-11-23T04:04:22.509Z,99302.44
2022-11-23T04:06:51.332Z,99294.75
2022-11-23T04:09:18.866Z,99298.31
2022-11-23T04:11:46.332Z,99292.06
2022-11-23T04:14:13.784Z,99302.03
2022-11-23T04:16:41.251Z,99302.63
2022-11-23T04:19:08.889Z,99303.25
2022-11-23T04:21:36.451Z,99301.00
2022-11-23T04:24:05.815Z,99303.91
2022-11-23T04:26:33.374Z,99302.03
2022-11-23T04:29:00.870Z,99298.69
2022-11-23T04:31:28.360Z,99303.69
2022-11-23T04:33:57.336Z,99299.53
2022-11-23T04:36:24.883Z,99302.22
2022-11-23T04:38:53.605Z,99299.13
2022-11-23T04:41:23.020Z,99307.38
2022-11-23T04:43:51.746Z,99305.72
2022-11-23T04:46:19.763Z,99309.44
2022-11-23T04:48:47.374Z,99309.88
2022-11-23T04:51:16.195Z,99311.31
2022-11-23T04:53:43.701Z,99313.16
2022-11-23T04:56:11.230Z,99315.84
2022-11-23T04:58:40.124Z,99314.59
2022-11-23T05:01:08.144Z,99319.16
2022-11-23T05:03:35.909Z,99321.22
2022-11-23T05:06:04.709Z,99327.66
2022-11-23T05:08:33.056Z,99320.63
2022-11-23T05:11:00.583Z,99324.13
2022-11-23T05:13:30.394Z,99326.81
2022-11-23T05:15:59.183Z,99324.97
2022-11-23T05:18:26.789Z,99329.91
2022-11-23T05:20:54.437Z,99323.50
2022-11-23T05:23:21.948Z,99327.81
2022-11-23T05:25:49.489Z,99330.50
2022-11-23T05:28:39.185Z,99334.66
2022-11-23T05:31:10.697Z,99332.41
2022-11-23T05:33:38.244Z,99329.91
2022-11-23T05:36:06.417Z,99332.59
2022-11-23T05:38:33.900Z,99334.66
2022-11-23T05:41:01.353Z,99338.19
2022-11-23T05:43:28.882Z,99338.78
2022-11-23T05:46:00.232Z,99338.41
2022-11-23T05:48:29.291Z,99344.59
2022-11-23T05:51:02.178Z,99340.88
2022-11-23T05:53:32.677Z,99343.78
2022-11-23T05:56:01.315Z,99343.78
2022-11-23T05:58:29.552Z,99341.69
2022-11-23T06:00:58.756Z,99341.47
2022-11-23T06:03:26.646Z,99340.88
2022-11-23T06:05:55.496Z,99333.41
2022-11-23T06:08:22.951Z,99340.66
2022-11-23T06:10:50.396Z,99341.47
2022-11-23T06:13:17.918Z,99343.78
2022-11-23T06:15:45.447Z,99338.63
2022-11-23T06:18:13.254Z,99353.69
2022-11-23T06:20:40.660Z,99345.03
2022-11-23T06:23:09.520Z,99354.94
2022-11-23T06:25:38.633Z,99345.84
2022-11-23T06:28:06.716Z,99350.19
2022-11-23T06:30:34.644Z,99342.72
2022-11-23T06:33:04.438Z,99350.41
2022-11-23T06:35:32.009Z,99349.38
2022-11-23T06:38:02.141Z,99355.38
2022-11-23T06:40:31.603Z,99361.38
2022-11-23T06:43:00.869Z,99357.84
2022-11-23T06:45:28.598Z,99365.69
2022-11-23T06:47:57.320Z,99367.56
2022-11-23T06:50:25.064Z,99369.03
2022-11-23T06:52:56.157Z,99363.44
2022-11-23T06:55:24.178Z,99371.50
2022-11-23T06:57:53.382Z,99372.34
2022-11-23T07:00:21.463Z,99376.88
2022-11-23T07:02:53.053Z,99383.28
2022-11-23T07:05:21.142Z,99382.88
2022-11-23T07:07:49.223Z,99385.97
2022-11-23T07:10:17.989Z,99384.72
2022-11-23T07:12:46.021Z,99381.00
2022-11-23T07:15:15.048Z,99381.41
2022-11-23T07:17:44.348Z,99388.03
2022-11-23T07:20:13.837Z,99392.19
2022-11-23T07:22:41.621Z,99394.03
2022-11-23T07:25:11.357Z,99389.28
2022-11-23T07:27:39.025Z,99400.47
2022-11-23T07:30:08.133Z,99399.84
2022-11-23T07:32:37.273Z,99400.47
2022-11-23T07:35:05.510Z,99404.22
2022-11-23T07:37:33.261Z,99402.13
2022-11-23T07:40:01.412Z,99402.56
2022-11-23T07:42:36.831Z,99401.75
2022-11-23T07:45:10.437Z,99406.91
2022-11-23T07:47:39.938Z,99407.13
2022-11-23T07:50:09.503Z,99407.97
2022-11-23T07:52:38.191Z,99410.47
2022-11-23T07:55:06.963Z,99404.66
2022-11-23T07:57:34.703Z,99404.25
2022-11-23T08:00:02.625Z,99409.63
2022-11-23T08:02:30.338Z,99418.56
2022-11-23T08:04:59.329Z,99420.59
2022-11-23T08:07:27.016Z,99412.97
2022-11-23T08:09:54.755Z,99421.66
2022-11-23T08:12:22.623Z,99422.06
2022-11-23T08:14:50.320Z,99411.28
2022-11-23T08:17:17.980Z,99417.09
2022-11-23T08:19:45.811Z,99421.66
2022-11-23T08:22:16.620Z,99417.91
2022-11-23T08:24:44.242Z,99422.28
2022-11-23T08:27:11.883Z,99419.78
2022-11-23T08:29:39.563Z,99425.19
2022-11-23T08:32:07.283Z,99419.16
2022-11-23T08:34:35.208Z,99422.47
2022-11-23T08:37:02.918Z,99428.69
2022-11-23T08:39:31.954Z,99427.03
2022-11-23T08:41:59.589Z,99429.09
2022-11-23T08:44:27.305Z,99436.56
2022-11-23T08:46:55.413Z,99426.22
2022-11-23T08:49:23.043Z,99431.16
2022-11-23T08:51:50.737Z,99434.66
2022-11-23T08:54:18.535Z,99430.72
2022-11-23T08:56:47.582Z,99437.16
2022-11-23T08:59:17.037Z,99429.50
2022-11-23T09:01:45.169Z,99426.00
2022-11-23T09:04:17.744Z,99425.78
2022-11-23T09:06:48.160Z,99423.09
2022-11-23T09:09:16.066Z,99434.47
2022-11-23T09:11:43.772Z,99436.13
2022-11-23T09:14:12.870Z,99442.97
2022-11-23T09:16:40.697Z,99437.34
2022-11-23T09:19:08.367Z,99432.81
2022-11-23T09:21:39.061Z,99445.63
2022-11-23T09:24:07.641Z,99434.47
2022-11-23T09:26:35.368Z,99435.06
2022-11-23T09:29:02.997Z,99440.25
2022-11-23T09:31:32.040Z,99447.28
2022-11-23T09:33:59.704Z,99446.69
2022-11-23T09:36:27.383Z,99444.38
2022-11-23T09:38:57.253Z,99449.72
2022-11-23T09:41:51.670Z,99448.09
2022-11-23T09:44:25.347Z,99447.25
2022-11-23T09:47:07.160Z,99457.63
2022-11-23T09:49:45.720Z,99452.81
2022-11-23T09:52:17.647Z,99459.44
2022-11-23T09:54:48.273Z,99456.34
2022-11-23T09:57:22.600Z,99452.19
2022-11-23T09:59:54.529Z,99447.41
2022-11-23T10:02:28.725Z,99455.06
2022-11-23T10:04:59.783Z,99449.69
2022-11-23T10:07:44.753Z,99453.38
2022-11-23T10:10:28.121Z,99459.38
2022-11-23T10:13:05.464Z,99457.94
2022-11-23T10:15:40.607Z,99454.81
2022-11-23T10:18:25.247Z,99454.97
2022-11-23T10:21:00.369Z,99457.38
2022-11-23T10:23:40.732Z,99456.06
2022-11-23T10:26:13.912Z,99456.97
2022-11-23T10:28:41.695Z,99466.69
2022-11-23T10:31:14.745Z,99457.72
2022-11-23T10:33:54.380Z,99460.56
2022-11-23T10:36:22.037Z,99461.19
2022-11-23T10:38:52.226Z,99452.38
2022-11-23T10:41:19.948Z,99452.22
2022-11-23T10:43:54.756Z,99462.59
2022-11-23T10:46:29.119Z,99458.66
2022-11-23T10:49:11.209Z,99467.16
2022-11-23T10:51:39.246Z,99466.72
2022-11-23T10:54:20.986Z,99472.16
2022-11-23T10:56:50.049Z,99474.66
2022-11-23T10:59:28.785Z,99473.38
2022-11-23T11:02:19.689Z,99473.22
2022-11-23T11:04:54.450Z,99474.66
2022-11-23T11:07:29.330Z,99473.00
2022-11-23T11:09:58.799Z,99474.03
2022-11-23T11:12:27.829Z,99465.75
2022-11-23T11:15:10.811Z,99471.78
2022-11-23T11:17:41.849Z,99466.16
2022-11-23T11:20:32.454Z,99457.59
2022-11-23T11:23:03.035Z,99454.69
2022-11-23T11:25:33.618Z,99468.34
2022-11-23T11:28:03.292Z,99456.69
2022-11-23T11:30:42.544Z,99452.50
2022-11-23T11:33:16.777Z,99451.25
2022-11-23T11:35:50.219Z,99450.38
2022-11-23T11:38:23.668Z,99448.28
2022-11-23T11:40:52.944Z,99443.50
2022-11-23T11:43:34.716Z,99447.91
2022-11-23T11:46:29.134Z,99439.94
2022-11-23T11:49:04.594Z,99442.28
2022-11-23T11:51:40.405Z,99440.97
2022-11-23T11:54:16.589Z,99438.63
2022-11-23T11:56:45.877Z,99438.13
2022-11-23T11:59:18.883Z,99433.50
2022-11-23T12:01:55.164Z,99429.63
2022-11-23T12:04:29.249Z,99429.88
2022-11-23T12:07:06.660Z,99425.06
2022-11-23T12:09:40.713Z,99429.56
2022-11-23T12:12:16.112Z,99419.66
2022-11-23T12:14:44.901Z,99419.66
2022-11-23T12:17:37.617Z,99414.38
2022-11-23T12:20:13.158Z,99418.53
2022-11-23T12:22:57.202Z,99415.63
2022-11-23T12:25:33.358Z,99417.72
2022-11-23T12:28:16.853Z,99408.63
2022-11-23T12:30:52.573Z,99416.13
2022-11-23T12:33:44.637Z,99412.22
2022-11-23T12:36:42.204Z,99410.78
2022-11-23T12:39:28.563Z,99411.56
2022-11-23T12:42:02.637Z,99416.44
2022-11-23T12:45:07.251Z,99406.06
2022-11-23T12:47:48.834Z,99410.28
2022-11-23T12:50:21.960Z,99411.56
2022-11-23T12:53:06.240Z,99415.97
2022-11-23T12:55:46.790Z,99412.75
2022-11-23T12:58:22.183Z,99407.78
2022-11-23T13:00:55.161Z,99412.84
2022-11-23T13:03:47.580Z,99411.16
2022-11-23T13:07:26.394Z,99406.50
2022-11-23T13:09:55.561Z,99418.31
2022-11-23T13:12:39.564Z,99419.81
2022-11-23T13:15:28.142Z,99409.91
2022-11-23T13:18:06.826Z,99404.97
2022-11-23T13:21:00.666Z,99406.66
2022-11-23T13:23:28.661Z,99405.69
2022-11-23T13:26:19.256Z,99404.72
2022-11-23T13:28:49.791Z,99395.41
2022-11-23T13:31:27.243Z,99403.72
2022-11-23T13:33:56.796Z,99391.69
2022-11-23T13:37:15.297Z,99396.06
2022-11-23T13:40:03.698Z,99392.47
2022-11-23T13:42:34.978Z,99384.28
2022-11-23T13:45:26.597Z,99386.59
2022-11-23T13:51:06.761Z,99368.38
2022-11-23T13:53:36.539Z,99375.47
2022-11-23T13:56:27.849Z,99367.22
2022-11-23T13:58:56.734Z,99373.91
2022-11-23T14:02:03.056Z,99365.44
2022-11-23T14:04:32.459Z,99374.56
2022-11-23T14:07:04.885Z,99382.06
2022-11-23T14:09:37.450Z,99377.50
2022-11-23T14:12:15.716Z,99385.00
2022-11-23T14:14:56.288Z,99380.84
2022-11-23T14:17:57.034Z,99375.91
2022-11-23T14:20:56.505Z,99378.63
2022-11-23T14:24:08.869Z,99374.88
2022-11-23T14:26:50.084Z,99366.38
2022-11-23T14:29:41.513Z,99369.53
2022-11-23T14:32:25.247Z,99377.63
2022-11-23T14:35:11.535Z,99375.59
2022-11-23T14:37:57.859Z,99372.88
2022-11-23T14:40:30.096Z,99376.03
2022-11-23T14:42:59.056Z,99368.16
2022-11-23T14:45:31.303Z,99366.91
2022-11-23T14:48:19.406Z,99368.00
2022-11-23T14:50:56.374Z,99373.63
2022-11-23T14:53:30.271Z,99374.03
2022-11-23T14:55:59.275Z,99379.22
2022-11-23T14:58:31.809Z,99378.41
2022-11-23T15:01:01.028Z,99384.03
2022-11-23T15:06:19.417Z,99392.41
2022-11-23T15:08:53.920Z,99386.38
2022-11-23T15:11:24.537Z,99389.53
2022-11-23T15:13:55.114Z,99392.44
2022-11-23T15:16:23.193Z,99394.09
2022-11-23T15:18:51.927Z,99397.47
2022-11-23T15:21:26.813Z,99401.81
2022-11-23T15:23:59.954Z,99402.00
2022-11-23T15:29:36.535Z,99395.78
2022-11-23T15:32:30.806Z,99403.41
2022-11-23T15:35:02.785Z,99405.06
2022-11-23T15:37:31.574Z,99409.41
2022-11-23T15:40:01.511Z,99404.28
2022-11-23T15:42:29.888Z,99413.03
2022-11-23T15:44:57.676Z,99412.44
2022-11-23T15:47:28.409Z,99413.91
2022-11-23T15:50:02.134Z,99411.84
2022-11-23T15:52:34.599Z,99409.84
2022-11-23T15:55:09.647Z,99412.53
2022-11-23T15:57:39.752Z,99414.38
2022-11-23T16:00:10.565Z,99415.00
2022-11-23T16:02:38.983Z,99420.81
2022-11-23T16:05:14.378Z,99422.06
2022-11-23T16:07:53.390Z,99409.03
2022-11-23T16:10:24.570Z,99407.16
2022-11-23T16:12:53.815Z,99416.94
2022-11-23T16:15:41.237Z,99414.25
2022-11-23T16:18:21.720Z,99415.28
2022-11-23T16:20:52.880Z,99410.94
2022-11-23T16:23:22.268Z,99403.50
2022-11-23T16:25:57.988Z,99398.53
2022-11-23T16:28:29.946Z,99395.88
2022-11-23T16:30:58.207Z,99397.91
2022-11-23T16:33:26.452Z,99413.06
2022-11-23T16:35:54.597Z,99419.28
2022-11-23T16:38:23.690Z,99421.78
2022-11-23T16:40:51.532Z,99421.94
2022-11-23T16:43:20.542Z,99426.06
2022-11-23T16:45:51.611Z,99433.97
2022-11-23T16:48:38.804Z,99433.34
2022-11-23T16:51:07.205Z,99439.19
2022-11-23T16:54:07.882Z,99439.00
2022-11-23T16:56:25.137Z,99440.66
2022-11-23T16:58:55.451Z,99443.78
2022-11-23T17:01:25.328Z,99448.41
2022-11-23T17:03:53.409Z,99448.22
2022-11-23T17:06:23.205Z,99438.69
2022-11-23T17:08:59.371Z,99439.53
2022-11-23T17:11:29.559Z,99445.59
2022-11-23T17:13:59.492Z,99446.84
2022-11-23T17:16:27.583Z,99445.59
2022-11-23T17:18:55.248Z,99458.47
2022-11-23T17:21:22.920Z,99457.22
2022-11-23T17:23:51.860Z,99460.53
2022-11-23T17:26:31.683Z,99463.03
2022-11-23T17:29:03.352Z,99468.41
2022-11-23T17:31:31.631Z,99484.56
2022-11-23T17:33:59.512Z,99481.28
2022-11-23T17:36:27.609Z,99494.75
2022-11-23T17:38:55.601Z,99489.56
2022-11-23T17:41:23.378Z,99492.47
2022-11-23T17:43:51.066Z,99498.88
2022-11-23T17:46:23.686Z,99498.47
2022-11-23T17:48:55.051Z,99501.81
2022-11-23T17:51:22.752Z,99507.19
2022-11-23T17:53:50.883Z,99513.63
2022-11-23T17:56:20.362Z,99514.88
2022-11-23T17:58:48.030Z,99522.72
2022-11-23T18:01:17.984Z,99526.88
2022-11-23T18:03:47.967Z,99528.94
2022-11-23T18:06:16.926Z,99526.88
2022-11-23T18:08:45.933Z,99530.59
2022-11-23T18:11:13.686Z,99536.84
2022-11-23T18:13:42.161Z,99534.94
2022-11-23T18:16:10.958Z,99531.22
2022-11-23T18:18:39.292Z,99537.66
2022-11-23T18:21:09.701Z,99534.75
2022-11-23T18:23:37.867Z,99540.94
2022-11-23T18:26:14.020Z,99536.19
2022-11-23T18:28:41.957Z,99544.28
2022-11-23T18:31:10.247Z,99546.97
2022-11-23T18:33:38.292Z,99546.34
2022-11-23T18:36:08.349Z,99553.19
2022-11-23T18:38:36.102Z,99550.09
2022-11-23T18:41:03.740Z,99547.19
2022-11-23T18:43:31.642Z,99555.03
2022-11-23T18:45:59.845Z,99554.22
2022-11-23T18:48:27.742Z,99552.56
2022-11-23T18:50:55.414Z,99549.03
2022-11-23T18:53:24.439Z,99563.72
2022-11-23T18:55:56.157Z,99563.28
2022-11-23T18:58:26.791Z,99559.56
2022-11-23T19:00:54.487Z,99563.69
2022-11-23T19:03:22.257Z,99563.25
2022-11-23T19:05:49.981Z,99562.88
2022-11-23T19:08:17.742Z,99563.69
2022-11-23T19:10:47.084Z,99557.84
2022-11-23T19:13:14.907Z,99561.19
2022-11-23T19:15:43.776Z,99561.00
2022-11-23T19:18:11.641Z,99562.44
2022-11-23T19:20:40.042Z,99562.63
2022-11-23T19:23:08.353Z,99560.97
2022-11-23T19:25:36.023Z,99560.09
2022-11-23T19:28:05.219Z,99563.84
2022-11-23T19:30:32.931Z,99564.44
2022-11-23T19:33:00.572Z,99566.53
2022-11-23T19:35:28.553Z,99564.00
2022-11-23T19:37:56.487Z,99558.63
2022-11-23T19:40:26.622Z,99564.00
2022-11-23T19:42:54.307Z,99566.09
2022-11-23T19:45:23.273Z,99571.66
2022-11-23T19:47:50.945Z,99577.88
2022-11-23T19:50:18.942Z,99588.63
2022-11-23T19:53:11.386Z,99586.38
2022-11-23T19:55:34.335Z,99587.84
2022-11-23T19:58:01.999Z,99581.38
2022-11-23T20:00:31.005Z,99590.28
2022-11-23T20:02:59.318Z,99586.16
2022-11-23T20:05:27.252Z,99588.84
2022-11-23T20:07:55.067Z,99577.31
2022-11-23T20:10:22.777Z,99583.53
2022-11-23T20:12:50.444Z,99578.78
2022-11-23T20:15:18.185Z,99588.34
2022-11-23T20:17:48.741Z,99592.28
2022-11-23T20:20:17.248Z,99598.25
2022-11-23T20:22:45.184Z,99606.31
2022-11-23T20:25:13.242Z,99606.31
2022-11-23T20:27:41.613Z,99607.97
2022-11-23T20:30:10.340Z,99615.81
2022-11-23T20:32:38.032Z,99616.03
2022-11-23T20:35:08.094Z,99622.88
2022-11-23T20:37:35.817Z,99622.06
2022-11-23T20:40:04.018Z,99632.84
2022-11-23T20:42:31.676Z,99630.34
2022-11-23T20:44:59.358Z,99639.06
2022-11-23T20:47:27.939Z,99629.13
2022-11-23T20:49:55.703Z,99632.47
2022-11-23T20:52:24.699Z,99636.81
2022-11-23T20:54:52.543Z,99639.09
2022-11-23T20:57:21.869Z,99641.38
2022-11-23T20:59:50.164Z,99642.44
2022-11-23T21:02:17.927Z,99637.66
2022-11-23T21:04:46.457Z,99653.44
2022-11-23T21:07:14.617Z,99644.47
2022-11-23T21:09:43.844Z,99656.28
2022-11-23T21:12:29.034Z,99651.13
2022-11-23T21:14:56.817Z,99659.44
2022-11-23T21:17:24.511Z,99660.47
2022-11-23T21:19:52.334Z,99667.72
2022-11-23T21:22:20.113Z,99669.19
2022-11-23T21:24:49.277Z,99664.81
2022-11-23T21:27:17.358Z,99668.97
2022-11-23T21:29:45.156Z,99676.03
2022-11-23T21:32:14.639Z,99680.16
2022-11-23T21:34:42.458Z,99694.25
2022-11-23T21:37:12.398Z,99694.66
2022-11-23T21:39:41.477Z,99692.19
2022-11-23T21:42:10.708Z,99691.97
2022-11-23T21:44:38.452Z,99697.75
2022-11-23T21:47:06.652Z,99701.72
2022-11-23T21:49:34.350Z,99693.00
2022-11-23T21:52:02.043Z,99698.38
2022-11-23T21:54:29.709Z,99705.03
2022-11-23T21:56:57.638Z,99703.56
2022-11-23T21:59:26.727Z,99694.00
2022-11-23T22:01:57.009Z,99706.88
2022-11-23T22:04:25.101Z,99706.31
2022-11-23T22:06:52.836Z,99700.53
2022-11-23T22:09:20.830Z,99700.56
2022-11-23T22:11:48.581Z,99701.00
2022-11-23T22:14:19.297Z,99705.34
2022-11-23T22:16:50.495Z,99706.81
2022-11-23T22:19:18.802Z,99721.75
2022-11-23T22:21:47.061Z,99723.78
2022-11-23T22:24:16.251Z,99724.22
2022-11-23T22:26:44.995Z,99728.75
2022-11-23T22:29:12.910Z,99724.22
2022-11-23T22:31:41.058Z,99730.44
2022-11-23T22:34:12.818Z,99728.53
2022-11-23T22:36:40.859Z,99732.91
2022-11-23T22:39:09.348Z,99733.31
2022-11-23T22:41:38.159Z,99731.25
2022-11-23T22:44:07.813Z,99732.91
2022-11-23T22:46:36.100Z,99738.94
2022-11-23T22:49:03.985Z,99739.75
2022-11-23T22:51:33.177Z,99749.28
2022-11-23T22:54:01.737Z,99742.88
2022-11-23T22:56:30.699Z,99743.25
2022-11-23T22:58:59.000Z,99742.66
2022-11-23T23:01:28.913Z,99738.50
2022-11-23T23:03:58.248Z,99755.25
2022-11-23T23:06:28.544Z,99756.91
2022-11-23T23:09:01.419Z,99749.25
2022-11-23T23:11:31.344Z,99756.31
2022-11-23T23:13:59.544Z,99756.31
2022-11-23T23:16:28.710Z,99754.22
2022-11-23T23:18:57.487Z,99752.56
2022-11-23T23:21:27.079Z,99755.88
2022-11-23T23:23:59.200Z,99761.06
2022-11-23T23:26:28.440Z,99753.63
2022-11-23T23:28:56.953Z,99758.38
2022-11-23T23:31:25.358Z,99752.97
2022-11-23T23:33:54.417Z,99758.97
2022-11-23T23:36:24.307Z,99773.03
2022-11-23T23:38:52.702Z,99771.59
2022-11-23T23:41:21.778Z,99781.13
2022-11-23T23:43:49.506Z,99780.09
2022-11-23T23:46:17.450Z,99771.16
2022-11-23T23:48:45.679Z,99767.66
2022-11-23T23:51:15.181Z,99775.31
2022-11-23T23:53:43.727Z,99777.19
2022-11-23T23:56:14.771Z,99790.88
2022-11-23T23:58:44.172Z,99794.59
